createdAt,value
2023-04-24T00:02:03.377Z,10.43
2023-04-24T00:04:36.981Z,10.39
2023-04-24T00:07:10.170Z,10.33
2023-04-24T00:09:43.710Z,10.29
2023-04-24T00:12:17.742Z,10.24
2023-04-24T00:14:52.774Z,10.19
2023-04-24T00:17:25.170Z,10.16
2023-04-24T00:19:59.730Z,10.12
2023-04-24T00:22:34.307Z,10.09
2023-04-24T00:25:08.526Z,10.06
2023-04-24T00:27:41.169Z,10.03
2023-04-24T00:30:15.667Z,10.01
2023-04-24T00:32:48.940Z,9.98
2023-04-24T00:35:22.726Z,9.94
2023-04-24T00:37:56.369Z,9.88
2023-04-24T00:40:29.253Z,9.84
2023-04-24T00:43:01.807Z,9.82
2023-04-24T00:45:34.512Z,9.75
2023-04-24T00:48:06.929Z,9.74
2023-04-24T00:50:42.712Z,9.71
2023-04-24T00:53:18.911Z,9.64
2023-04-24T00:55:52.053Z,9.64
2023-04-24T00:58:25.288Z,9.60
2023-04-24T01:00:58.775Z,9.58
2023-04-24T01:03:34.006Z,9.55
2023-04-24T01:06:09.103Z,9.53
2023-04-24T01:08:44.102Z,9.53
2023-04-24T01:11:17.887Z,9.51
2023-04-24T01:13:51.830Z,9.50
2023-04-24T01:16:24.815Z,9.49
2023-04-24T01:18:57.743Z,9.50
2023-04-24T01:21:32.944Z,9.51
2023-04-24T01:24:07.778Z,9.54
2023-04-24T01:26:40.570Z,9.53
2023-04-24T01:29:15.614Z,9.53
2023-04-24T01:31:51.246Z,9.55
2023-04-24T01:34:23.960Z,9.58
2023-04-24T01:36:57.640Z,9.58
2023-04-24T01:39:30.296Z,9.55
2023-04-24T01:42:03.960Z,9.55
2023-04-24T01:44:37.618Z,9.51
2023-04-24T01:47:10.716Z,9.49
2023-04-24T01:49:43.714Z,9.46
2023-04-24T01:52:20.682Z,9.43
2023-04-24T01:54:57.053Z,9.41
2023-04-24T01:57:31.823Z,9.39
2023-04-24T02:00:08.678Z,9.37
2023-04-24T02:02:48.616Z,9.34
2023-04-24T02:05:23.562Z,9.32
2023-04-24T02:07:57.270Z,9.32
2023-04-24T02:10:29.911Z,9.32
2023-04-24T02:13:06.099Z,9.29
2023-04-24T02:15:38.710Z,9.26
2023-04-24T02:18:11.470Z,9.21
2023-04-24T02:20:45.666Z,9.15
2023-04-24T02:23:19.588Z,9.09
2023-04-24T02:25:54.420Z,9.04
2023-04-24T02:28:26.776Z,8.99
2023-04-24T02:31:01.672Z,8.96
2023-04-24T02:33:34.433Z,8.91
2023-04-24T02:36:09.230Z,8.88
2023-04-24T02:38:41.862Z,8.82
2023-04-24T02:41:14.786Z,8.77
2023-04-24T02:43:49.843Z,8.75
2023-04-24T02:46:22.183Z,8.71
2023-04-24T02:48:57.280Z,8.71
2023-04-24T02:51:30.284Z,8.69
2023-04-24T02:54:03.129Z,8.65
2023-04-24T02:56:37.492Z,8.63
2023-04-24T02:59:11.710Z,8.64
2023-04-24T03:01:45.520Z,8.60
2023-04-24T03:04:21.628Z,8.57
2023-04-24T03:06:56.053Z,8.56
2023-04-24T03:09:28.723Z,8.53
2023-04-24T03:12:02.796Z,8.53
2023-04-24T03:14:37.128Z,8.51
2023-04-24T03:17:10.022Z,8.53
2023-04-24T03:19:43.817Z,8.51
2023-04-24T03:22:17.228Z,8.51
2023-04-24T03:24:49.796Z,8.53
2023-04-24T03:27:25.351Z,8.56
2023-04-24T03:30:03.645Z,8.58
2023-04-24T03:32:47.335Z,8.67
2023-04-24T03:35:23.234Z,8.75
2023-04-24T03:37:56.325Z,8.87
2023-04-24T03:40:48.031Z,8.94
2023-04-24T03:43:45.822Z,9.05
2023-04-24T03:46:34.778Z,9.15
2023-04-24T03:49:09.005Z,9.22
2023-04-24T03:51:47.812Z,9.30
2023-04-24T03:54:24.135Z,9.40
2023-04-24T03:56:57.625Z,9.53
2023-04-24T03:59:34.398Z,9.60
2023-04-24T04:02:27.867Z,9.71
2023-04-24T04:05:00.654Z,9.82
2023-04-24T04:07:37.327Z,9.92
2023-04-24T04:10:11.599Z,10.03
2023-04-24T04:12:46.572Z,10.15
2023-04-24T04:15:19.210Z,10.26
2023-04-24T04:17:51.777Z,10.40
2023-04-24T04:20:25.395Z,10.58
2023-04-24T04:22:58.077Z,11.19
2023-04-24T04:25:41.491Z,11.88
2023-04-24T04:28:23.927Z,12.55
2023-04-24T04:30:56.935Z,13.52
2023-04-24T04:33:29.941Z,14.48
2023-04-24T04:36:06.921Z,15.18
2023-04-24T04:38:43.061Z,16.03
2023-04-24T04:41:27.503Z,16.83
2023-04-24T04:44:00.560Z,17.46
2023-04-24T04:46:35.545Z,18.38
2023-04-24T04:49:18.174Z,19.18
2023-04-24T04:51:53.764Z,19.90
2023-04-24T04:54:26.826Z,20.07
2023-04-24T04:57:00.064Z,20.46
2023-04-24T04:59:32.718Z,21.05
2023-04-24T05:02:14.309Z,21.69
2023-04-24T05:04:47.478Z,22.54
2023-04-24T05:07:20.953Z,23.32
2023-04-24T05:09:58.247Z,24.11
2023-04-24T05:12:30.995Z,24.66
2023-04-24T05:15:04.289Z,24.44
2023-04-24T05:17:37.140Z,24.20
2023-04-24T05:20:11.677Z,24.77
2023-04-24T05:22:45.967Z,25.39
2023-04-24T05:25:19.933Z,25.83
2023-04-24T05:27:58.765Z,26.16
2023-04-24T05:30:31.571Z,26.35
2023-04-24T05:33:04.807Z,26.23
2023-04-24T05:35:47.252Z,26.16
2023-04-24T05:38:20.878Z,25.86
2023-04-24T05:40:54.873Z,24.82
2023-04-24T05:43:27.725Z,23.76
2023-04-24T05:46:01.699Z,23.11
2023-04-24T05:48:34.354Z,22.52
2023-04-24T05:51:09.005Z,22.15
2023-04-24T05:53:41.450Z,21.86
2023-04-24T05:56:15.045Z,21.55
2023-04-24T05:58:47.786Z,21.18
2023-04-24T06:01:20.928Z,20.94
2023-04-24T06:03:58.602Z,20.83
2023-04-24T06:06:36.980Z,20.96
2023-04-24T06:09:09.922Z,21.05
2023-04-24T06:11:42.930Z,20.77
2023-04-24T06:14:16.577Z,20.41
2023-04-24T06:17:11.482Z,20.05
2023-04-24T06:19:51.250Z,19.80
2023-04-24T06:22:25.186Z,19.63
2023-04-24T06:24:59.449Z,19.55
2023-04-24T06:27:34.444Z,19.46
2023-04-24T06:30:09.623Z,19.41
2023-04-24T06:32:43.258Z,19.49
2023-04-24T06:35:15.636Z,19.68
2023-04-24T06:37:49.144Z,19.91
2023-04-24T06:40:21.981Z,20.51
2023-04-24T06:42:54.255Z,21.49
2023-04-24T06:45:26.461Z,22.58
2023-04-24T06:47:59.496Z,23.65
2023-04-24T06:50:31.884Z,24.54
2023-04-24T06:53:04.320Z,24.91
2023-04-24T06:55:37.906Z,25.01
2023-04-24T06:58:09.366Z,24.96
2023-04-24T07:00:41.889Z,24.70
2023-04-24T07:03:17.338Z,24.37
2023-04-24T07:05:54.578Z,23.87
2023-04-24T07:08:27.619Z,23.38
2023-04-24T07:10:59.892Z,22.70
2023-04-24T07:13:32.255Z,22.03
2023-04-24T07:16:05.193Z,21.50
2023-04-24T07:18:39.686Z,21.28
2023-04-24T07:21:12.510Z,21.08
2023-04-24T07:23:45.290Z,21.01
2023-04-24T07:26:18.206Z,21.07
2023-04-24T07:28:50.875Z,21.14
2023-04-24T07:31:23.405Z,21.11
2023-04-24T07:33:59.279Z,21.67
2023-04-24T07:36:34.547Z,22.20
2023-04-24T07:39:08.495Z,22.18
2023-04-24T07:41:43.632Z,21.99
2023-04-24T07:44:16.798Z,21.97
2023-04-24T07:46:53.666Z,22.32
2023-04-24T07:49:26.340Z,22.84
2023-04-24T07:51:58.816Z,23.34
2023-04-24T07:54:31.433Z,23.90
2023-04-24T07:57:04.013Z,24.24
2023-04-24T07:59:36.505Z,24.37
2023-04-24T08:02:09.078Z,24.62
2023-04-24T08:04:41.984Z,24.94
2023-04-24T08:07:18.197Z,25.15
2023-04-24T08:09:52.111Z,25.42
2023-04-24T08:12:25.824Z,25.32
2023-04-24T08:14:58.284Z,25.07
2023-04-24T08:17:31.960Z,24.56
2023-04-24T08:20:06.406Z,24.22
2023-04-24T08:22:38.988Z,24.10
2023-04-24T08:25:13.404Z,24.05
2023-04-24T08:27:46.566Z,23.99
2023-04-24T08:30:19.646Z,23.75
2023-04-24T08:32:53.357Z,23.38
2023-04-24T08:35:26.130Z,22.94
2023-04-24T08:37:58.442Z,22.66
2023-04-24T08:40:36.511Z,22.45
2023-04-24T08:43:09.442Z,22.31
2023-04-24T08:45:42.690Z,22.25
2023-04-24T08:48:27.726Z,22.22
2023-04-24T08:51:05.405Z,22.20
2023-04-24T08:53:38.519Z,22.24
2023-04-24T08:56:11.749Z,22.31
2023-04-24T08:58:47.371Z,22.39
2023-04-24T09:01:21.239Z,22.59
2023-04-24T09:03:59.243Z,23.07
2023-04-24T09:06:36.154Z,23.56
2023-04-24T09:09:08.766Z,23.94
2023-04-24T09:11:42.285Z,24.12
2023-04-24T09:14:16.986Z,24.30
2023-04-24T09:16:50.755Z,24.39
2023-04-24T09:19:23.519Z,24.48
2023-04-24T09:21:56.947Z,24.49
2023-04-24T09:24:27.756Z,24.84
2023-04-24T09:27:03.844Z,25.25
2023-04-24T09:29:36.352Z,25.61
2023-04-24T09:32:26.228Z,25.80
2023-04-24T09:35:13.519Z,26.00
2023-04-24T09:37:48.089Z,26.23
2023-04-24T09:40:22.516Z,26.46
2023-04-24T09:42:59.113Z,26.76
2023-04-24T09:45:39.375Z,26.99
2023-04-24T09:48:14.345Z,26.97
2023-04-24T09:50:50.991Z,26.93
2023-04-24T09:53:28.602Z,26.94
2023-04-24T09:56:09.382Z,27.15
2023-04-24T09:58:43.057Z,27.28
2023-04-24T10:01:17.718Z,27.18
2023-04-24T10:03:52.990Z,26.90
2023-04-24T10:06:33.070Z,26.58
2023-04-24T10:09:06.644Z,26.46
2023-04-24T10:11:43.808Z,26.46
2023-04-24T10:14:19.208Z,26.59
2023-04-24T10:16:55.234Z,26.82
2023-04-24T10:19:29.454Z,26.86
2023-04-24T10:22:03.009Z,26.97
2023-04-24T10:24:37.328Z,27.11
2023-04-24T10:27:10.514Z,27.28
2023-04-24T10:29:41.417Z,27.59
2023-04-24T10:32:14.904Z,27.89
2023-04-24T10:34:47.598Z,28.04
2023-04-24T10:37:19.126Z,28.26
2023-04-24T10:39:56.050Z,28.42
2023-04-24T10:42:32.051Z,28.59
2023-04-24T10:45:11.637Z,28.44
2023-04-24T10:48:04.340Z,28.08
2023-04-24T10:50:50.705Z,27.93
2023-04-24T10:53:25.424Z,28.11
2023-04-24T10:56:05.036Z,28.38
2023-04-24T10:58:46.158Z,28.44
2023-04-24T11:01:30.494Z,28.35
2023-04-24T11:04:06.097Z,28.45
2023-04-24T11:06:39.860Z,28.66
2023-04-24T11:09:14.257Z,28.73
2023-04-24T11:11:51.151Z,28.62
2023-04-24T11:14:23.569Z,28.61
2023-04-24T11:16:57.500Z,28.66
2023-04-24T11:19:32.287Z,28.71
2023-04-24T11:22:06.995Z,28.71
2023-04-24T11:24:52.166Z,28.49
2023-04-24T11:27:32.160Z,28.28
2023-04-24T11:30:06.133Z,28.28
2023-04-24T11:32:41.546Z,28.21
2023-04-24T11:35:18.045Z,28.16
2023-04-24T11:38:13.084Z,27.99
2023-04-24T11:40:47.236Z,27.66
2023-04-24T11:43:21.359Z,27.51
2023-04-24T11:45:55.404Z,27.28
2023-04-24T11:48:28.257Z,26.97
2023-04-24T11:51:04.063Z,26.87
2023-04-24T11:53:38.565Z,26.92
2023-04-24T11:56:12.605Z,26.90
2023-04-24T11:58:45.950Z,26.69
2023-04-24T12:01:18.304Z,26.42
2023-04-24T12:04:02.237Z,26.11
2023-04-24T12:06:35.248Z,25.92
2023-04-24T12:09:17.775Z,25.76
2023-04-24T12:11:59.286Z,25.58
2023-04-24T12:14:31.738Z,25.22
2023-04-24T12:17:07.000Z,24.89
2023-04-24T12:19:47.965Z,24.59
2023-04-24T12:22:21.037Z,24.31
2023-04-24T12:25:04.312Z,24.11
2023-04-24T12:27:37.088Z,23.89
2023-04-24T12:30:15.371Z,23.72
2023-04-24T12:32:51.564Z,23.58
2023-04-24T12:35:28.792Z,23.44
2023-04-24T12:38:10.243Z,23.18
2023-04-24T12:40:44.228Z,22.89
2023-04-24T12:43:20.566Z,22.55
2023-04-24T12:45:53.528Z,22.14
2023-04-24T12:48:26.993Z,21.73
2023-04-24T12:51:02.834Z,21.39
2023-04-24T12:53:35.501Z,21.14
2023-04-24T12:56:10.425Z,20.91
2023-04-24T12:58:44.695Z,20.73
2023-04-24T13:01:17.096Z,20.69
2023-04-24T13:03:50.475Z,20.70
2023-04-24T13:06:27.711Z,20.76
2023-04-24T13:09:00.419Z,20.84
2023-04-24T13:11:32.987Z,20.91
2023-04-24T13:14:05.365Z,20.93
2023-04-24T13:16:47.686Z,21.03
2023-04-24T13:19:20.326Z,21.14
2023-04-24T13:21:53.463Z,21.17
2023-04-24T13:24:27.223Z,21.18
2023-04-24T13:27:00.298Z,21.27
2023-04-24T13:29:33.922Z,21.34
2023-04-24T13:32:07.017Z,21.49
2023-04-24T13:34:40.320Z,21.56
2023-04-24T13:37:18.427Z,21.63
2023-04-24T13:39:58.789Z,21.76
2023-04-24T13:42:31.686Z,21.87
2023-04-24T13:45:21.338Z,22.00
2023-04-24T13:48:04.298Z,22.18
2023-04-24T13:50:36.669Z,22.31
2023-04-24T13:53:09.407Z,22.43
2023-04-24T13:55:41.880Z,22.51
2023-04-24T13:58:16.211Z,22.62
2023-04-24T14:00:51.969Z,22.62
2023-04-24T14:03:25.190Z,22.67
2023-04-24T14:05:58.792Z,22.67
2023-04-24T14:08:31.261Z,22.72
2023-04-24T14:11:04.629Z,22.59
2023-04-24T14:13:38.073Z,22.55
2023-04-24T14:16:11.134Z,22.56
2023-04-24T14:18:46.198Z,22.58
2023-04-24T14:21:18.618Z,22.65
2023-04-24T14:23:51.688Z,22.66
2023-04-24T14:26:25.831Z,22.67
2023-04-24T14:29:11.642Z,22.73
2023-04-24T14:31:49.892Z,22.80
2023-04-24T14:34:22.738Z,22.90
2023-04-24T14:36:58.684Z,22.97
2023-04-24T14:39:31.395Z,23.03
2023-04-24T14:42:04.027Z,23.09
2023-04-24T14:44:42.768Z,23.14
2023-04-24T14:47:16.236Z,23.11
2023-04-24T14:49:51.552Z,23.07
2023-04-24T14:52:23.899Z,23.05
2023-04-24T14:54:56.374Z,23.04
2023-04-24T14:57:29.247Z,23.05
2023-04-24T15:00:02.162Z,22.98
2023-04-24T15:02:35.150Z,22.93
2023-04-24T15:05:10.208Z,22.89
2023-04-24T15:07:43.751Z,22.87
2023-04-24T15:10:18.917Z,22.86
2023-04-24T15:12:49.828Z,22.86
2023-04-24T15:15:22.553Z,22.77
2023-04-24T15:17:56.438Z,22.70
2023-04-24T15:20:29.226Z,22.62
2023-04-24T15:23:03.439Z,22.55
2023-04-24T15:25:39.157Z,22.49
2023-04-24T15:28:11.780Z,22.43
2023-04-24T15:30:45.957Z,22.35
2023-04-24T15:33:19.159Z,22.29
2023-04-24T15:35:52.512Z,22.21
2023-04-24T15:38:25.173Z,22.13
2023-04-24T15:40:57.623Z,22.01
2023-04-24T15:43:35.448Z,21.87
2023-04-24T15:46:11.374Z,21.77
2023-04-24T15:48:46.107Z,21.65
2023-04-24T15:51:18.461Z,21.50
2023-04-24T15:53:51.444Z,21.38
2023-04-24T15:56:24.606Z,21.25
2023-04-24T15:58:57.059Z,21.11
2023-04-24T16:01:29.703Z,20.97
2023-04-24T16:04:02.488Z,20.86
2023-04-24T16:06:35.148Z,20.72
2023-04-24T16:09:08.826Z,20.59
2023-04-24T16:11:41.763Z,20.45
2023-04-24T16:14:14.139Z,20.31
2023-04-24T16:16:49.426Z,20.21
2023-04-24T16:19:21.914Z,20.07
2023-04-24T16:21:56.670Z,19.94
2023-04-24T16:24:29.598Z,19.80
2023-04-24T16:27:04.635Z,19.70
2023-04-24T16:29:37.200Z,19.62
2023-04-24T16:32:10.588Z,19.55
2023-04-24T16:34:43.345Z,19.46
2023-04-24T16:37:16.611Z,19.39
2023-04-24T16:39:55.299Z,19.34
2023-04-24T16:42:33.573Z,19.27
2023-04-24T16:45:08.642Z,19.23
2023-04-24T16:47:43.721Z,19.20
2023-04-24T16:50:16.875Z,19.13
2023-04-24T16:52:54.099Z,19.07
2023-04-24T16:55:27.810Z,18.93
2023-04-24T16:57:58.779Z,18.84
2023-04-24T17:00:31.647Z,18.72
2023-04-24T17:03:06.783Z,18.62
2023-04-24T17:05:39.625Z,18.54
2023-04-24T17:08:12.676Z,18.40
2023-04-24T17:10:46.313Z,18.27
2023-04-24T17:13:18.962Z,18.14
2023-04-24T17:15:51.315Z,18.00
2023-04-24T17:18:24.848Z,17.83
2023-04-24T17:20:57.215Z,17.69
2023-04-24T17:23:29.686Z,17.55
2023-04-24T17:26:02.321Z,17.38
2023-04-24T17:28:36.654Z,17.23
2023-04-24T17:31:10.084Z,17.06
2023-04-24T17:33:42.542Z,16.87
2023-04-24T17:36:14.978Z,16.69
2023-04-24T17:38:48.461Z,16.55
2023-04-24T17:41:21.837Z,16.40
2023-04-24T17:43:54.461Z,16.25
2023-04-24T17:46:27.467Z,16.09
2023-04-24T17:49:00.296Z,15.96
2023-04-24T17:51:33.003Z,15.82
2023-04-24T17:54:05.622Z,15.69
2023-04-24T17:56:38.529Z,15.58
2023-04-24T17:59:12.360Z,15.45
2023-04-24T18:01:47.959Z,15.38
2023-04-24T18:04:20.735Z,15.27
2023-04-24T18:06:53.498Z,15.20
2023-04-24T18:09:26.307Z,15.10
2023-04-24T18:11:58.646Z,14.99
2023-04-24T18:14:31.677Z,14.92
2023-04-24T18:17:05.489Z,14.83
2023-04-24T18:19:38.769Z,14.76
2023-04-24T18:22:13.622Z,14.68
2023-04-24T18:24:50.612Z,14.61
2023-04-24T18:27:29.412Z,14.47
2023-04-24T18:30:03.776Z,14.41
2023-04-24T18:32:36.409Z,14.28
2023-04-24T18:35:10.957Z,14.23
2023-04-24T18:37:43.439Z,14.14
2023-04-24T18:40:18.685Z,14.04
2023-04-24T18:42:51.661Z,13.99
2023-04-24T18:45:24.411Z,13.92
2023-04-24T18:47:57.211Z,13.88
2023-04-24T18:50:32.000Z,13.86
2023-04-24T18:53:04.529Z,13.88
2023-04-24T18:55:37.504Z,13.85
2023-04-24T18:58:12.685Z,13.86
2023-04-24T19:00:48.064Z,13.90
2023-04-24T19:03:20.995Z,13.93
2023-04-24T19:05:54.283Z,13.96
2023-04-24T19:08:26.610Z,14.03
2023-04-24T19:10:59.063Z,14.12
2023-04-24T19:13:31.556Z,14.20
2023-04-24T19:16:04.823Z,14.25
2023-04-24T19:18:38.178Z,14.35
2023-04-24T19:21:10.988Z,14.45
2023-04-24T19:23:46.648Z,14.52
2023-04-24T19:26:19.229Z,14.64
2023-04-24T19:28:53.781Z,14.71
2023-04-24T19:31:28.888Z,14.76
2023-04-24T19:34:06.568Z,14.78
2023-04-24T19:36:43.957Z,14.85
2023-04-24T19:39:17.196Z,14.90
2023-04-24T19:41:51.162Z,14.92
2023-04-24T19:44:23.894Z,14.87
2023-04-24T19:46:56.281Z,14.87
2023-04-24T19:49:29.220Z,14.82
2023-04-24T19:52:02.184Z,14.78
2023-04-24T19:54:36.755Z,14.75
2023-04-24T19:57:11.553Z,14.72
2023-04-24T19:59:44.182Z,14.71
2023-04-24T20:02:17.064Z,14.68
2023-04-24T20:04:51.089Z,14.64
2023-04-24T20:07:24.270Z,14.54
2023-04-24T20:09:58.124Z,14.50
2023-04-24T20:12:36.376Z,14.44
2023-04-24T20:15:12.111Z,14.38
2023-04-24T20:17:48.122Z,14.31
2023-04-24T20:20:20.770Z,14.25
2023-04-24T20:22:53.482Z,14.16
2023-04-24T20:25:26.220Z,14.09
2023-04-24T20:27:58.862Z,14.04
2023-04-24T20:30:32.729Z,13.95
2023-04-24T20:33:05.584Z,13.92
2023-04-24T20:35:38.275Z,13.84
2023-04-24T20:38:11.725Z,13.75
2023-04-24T20:40:57.279Z,13.69
2023-04-24T20:43:31.155Z,13.62
2023-04-24T20:46:04.037Z,13.57
2023-04-24T20:48:36.705Z,13.48
2023-04-24T20:51:09.330Z,13.41
2023-04-24T20:53:49.754Z,13.31
2023-04-24T20:56:24.945Z,13.24
2023-04-24T20:58:59.155Z,13.19
2023-04-24T21:01:30.581Z,13.13
2023-04-24T21:04:05.994Z,13.06
2023-04-24T21:06:38.553Z,12.98
2023-04-24T21:09:12.635Z,12.94
2023-04-24T21:11:46.517Z,12.92
2023-04-24T21:14:22.052Z,12.89
2023-04-24T21:16:56.722Z,12.91
2023-04-24T21:19:29.851Z,12.92
2023-04-24T21:22:02.425Z,12.94
2023-04-24T21:24:34.952Z,12.95
2023-04-24T21:27:08.117Z,12.95
2023-04-24T21:29:40.686Z,12.94
2023-04-24T21:32:19.369Z,12.89
2023-04-24T21:34:52.199Z,12.86
2023-04-24T21:37:24.541Z,12.85
2023-04-24T21:39:57.267Z,12.80
2023-04-24T21:42:32.495Z,12.78
2023-04-24T21:45:05.892Z,12.76
2023-04-24T21:47:38.629Z,12.71
2023-04-24T21:50:15.377Z,12.68
2023-04-24T21:52:49.103Z,12.62
2023-04-24T21:55:23.710Z,12.61
2023-04-24T21:57:56.178Z,12.59
2023-04-24T22:00:29.439Z,12.55
2023-04-24T22:03:01.945Z,12.50
2023-04-24T22:05:35.632Z,12.47
2023-04-24T22:08:08.228Z,12.44
2023-04-24T22:10:47.296Z,12.41
2023-04-24T22:13:19.760Z,12.37
2023-04-24T22:15:55.113Z,12.37
2023-04-24T22:18:36.570Z,12.34
2023-04-24T22:21:17.947Z,12.34
2023-04-24T22:23:50.857Z,12.30
2023-04-24T22:26:24.313Z,12.27
2023-04-24T22:28:56.780Z,12.26
2023-04-24T22:31:29.610Z,12.20
2023-04-24T22:34:04.069Z,12.17
2023-04-24T22:36:37.333Z,12.16
2023-04-24T22:39:10.858Z,12.16
2023-04-24T22:41:44.490Z,12.12
2023-04-24T22:44:21.873Z,12.10
2023-04-24T22:46:54.464Z,12.12
2023-04-24T22:49:28.456Z,12.09
2023-04-24T22:51:59.530Z,12.05
2023-04-24T22:54:35.420Z,12.05
2023-04-24T22:57:08.368Z,12.03
2023-04-24T22:59:41.039Z,12.03
2023-04-24T23:02:16.177Z,11.97
2023-04-24T23:04:49.577Z,11.99
2023-04-24T23:07:22.512Z,11.95
2023-04-24T23:09:56.184Z,11.92
2023-04-24T23:12:32.977Z,11.89
2023-04-24T23:15:09.244Z,11.84
2023-04-24T23:17:42.623Z,11.81
2023-04-24T23:20:19.782Z,11.78
2023-04-24T23:22:53.820Z,11.74
2023-04-24T23:25:26.481Z,11.71
2023-04-24T23:27:58.988Z,11.68
2023-04-24T23:30:31.658Z,11.65
2023-04-24T23:33:04.549Z,11.64
2023-04-24T23:35:37.601Z,11.61
2023-04-24T23:38:12.592Z,11.64
2023-04-24T23:40:59.259Z,11.64
2023-04-24T23:43:31.920Z,11.62
2023-04-24T23:46:04.879Z,11.61
2023-04-24T23:48:37.859Z,11.60
2023-04-24T23:51:11.818Z,11.58
2023-04-24T23:53:44.730Z,11.60
2023-04-24T23:56:19.539Z,11.60
2023-04-24T23:58:52.692Z,11.57
